Time;durP1;ratioP1;P1;durP2;ratioP2;P2;SDS_P1;SDS_P2;PMS_P1;PMS_P2;Temp;Humidity;BMP_temperature;BMP_pressure;BME280_temperature;BME280_humidity;BME280_pressure;Samples;Min_cycle;Max_cycle;Signal;HPM_P1;HPM_P2
2022/04/30 00:00:08;;;;;;;;;;;;;;;11.67;57.43;97295.56;30001;982;1881;-62
2022/04/30 00:00:40;;;;;;;;;;;;;;;11.67;57.16;97302.91;30001;982;1859;-62
2022/04/30 00:01:11;;;;;;;;;;;;;;;11.67;57.37;97294.75;30001;983;1876;-63
2022/04/30 00:01:41;;;;;;;;;;;;;;;11.67;57.55;97300.19;30001;983;1880;-61
2022/04/30 00:02:13;;;;;;;;;;;;;;;11.67;57.68;97300.19;30001;983;1880;-62
2022/04/30 00:02:44;;;;;;;;;;;;;;;11.66;57.61;97301.28;30001;983;1880;-62
2022/04/30 00:03:15;;;;;;;;;;;;;;;11.66;57.66;97298.56;30001;983;1880;-61
2022/04/30 00:03:47;;;;;;;;;;;;;;;11.66;57.64;97295.84;30001;983;1880;-62
2022/04/30 00:04:21;;;;;;;;;;;;;;;11.65;57.84;97302.41;30001;983;1880;-62
2022/04/30 00:04:52;;;;;;;;;;;;;;;11.65;57.90;97296.97;30001;981;1893;-62
2022/04/30 00:05:23;;;;;;;;;;;;;;;11.64;57.93;97296.16;30001;983;1881;-62
2022/04/30 00:05:55;;;;;;;;;;;;;;;11.64;57.53;97292.63;30001;983;1859;-62
2022/04/30 00:06:25;;;;;;;;;;;;;;;11.64;57.66;97289.91;30001;982;1876;-62
2022/04/30 00:06:59;;;;;;;;;;;;;;;11.64;57.93;97298.06;30001;982;1881;-62
2022/04/30 00:07:30;;;;;;;;;;;;;;;11.62;57.55;97297.53;30001;982;1881;-62
2022/04/30 00:08:03;;;;;;;;;;;;;;;11.62;57.69;97292.09;30001;982;1881;-63
2022/04/30 00:08:34;;;;;;;;;;;;;;;11.63;57.66;97291.00;30001;982;1881;-62
2022/04/30 00:09:06;;;;;;;;;;;;;;;11.63;57.77;97299.16;30001;983;1880;-63
2022/04/30 00:09:37;;;;;;;;;;;;;;;11.64;57.55;97295.34;30001;983;1880;-61
2022/04/30 00:10:08;;;;;;;;;;;;;;;11.62;57.43;97287.47;30001;983;1880;-62
2022/04/30 00:10:39;;;;;;;;;;;;;;;11.63;57.31;97293.72;30001;983;1858;-65
2022/04/30 00:11:10;;;;;;;;;;;;;;;11.62;57.25;97290.19;30001;983;1876;-61
2022/04/30 00:11:41;;;;;;;;;;;;;;;11.62;57.48;97292.09;30001;983;1880;-61
2022/04/30 00:12:12;;;;;;;;;;;;;;;11.62;57.54;97297.53;30001;983;1880;-62
2022/04/30 00:12:43;;;;;;;;;;;;;;;11.63;57.12;97288.28;30001;983;1880;-63
2022/04/30 00:13:14;;;;;;;;;;;;;;;11.63;57.50;97293.72;30001;982;1881;-62
2022/04/30 00:13:46;;;;;;;;;;;;;;;11.63;57.38;97285.56;30001;982;1881;-63
2022/04/30 00:14:17;;;;;;;;;;;;;;;11.65;57.62;97291.53;30001;982;1881;-63
2022/04/30 00:14:48;;;;;;;;;;;;;;;11.63;57.45;97293.72;30001;982;1881;-63
2022/04/30 00:15:20;;;;;;;;;;;;;;;11.64;57.55;97295.34;30001;982;1881;-64
2022/04/30 00:15:52;;;;;;;;;;;;;;;11.63;57.42;97293.72;30001;982;1859;-62
2022/04/30 00:16:23;;;;;;;;;;;;;;;11.64;57.70;97292.63;30001;983;1876;-62
2022/04/30 00:16:53;;;;;;;;;;;;;;;11.62;57.68;97290.19;30001;983;1880;-63
2022/04/30 00:17:24;;;;;;;;;;;;;;;11.62;57.70;97286.66;30001;983;1880;-61
2022/04/30 00:17:55;;;;;;;;;;;;;;;11.61;57.96;97295.91;30001;983;1880;-62
2022/04/30 00:18:26;;;;;;;;;;;;;;;11.61;58.19;97293.19;30001;983;1879;-61
2022/04/30 00:18:58;;;;;;;;;;;;;;;11.59;58.63;97298.09;30001;983;1880;-61
2022/04/30 00:19:29;;;;;;;;;;;;;;;11.57;58.52;97303.03;30001;983;1880;-62
2022/04/30 00:20:00;;;;;;;;;;;;;;;11.56;58.76;97293.25;30001;983;1880;-62
2022/04/30 00:20:32;;;;;;;;;;;;;;;11.55;58.73;97297.06;30001;982;1881;-62
2022/04/30 00:21:05;;;;;;;;;;;;;;;11.54;58.62;97295.44;30001;984;1860;-61
2022/04/30 00:21:35;;;;;;;;;;;;;;;11.53;58.87;97299.25;30001;982;1876;-61
2022/04/30 00:22:08;;;;;;;;;;;;;;;11.53;59.20;97299.25;30001;982;1881;-61
2022/04/30 00:22:39;;;;;;;;;;;;;;;11.52;59.65;97303.06;30001;982;1881;-62
2022/04/30 00:23:19;;;;;;;;;;;;;;;11.51;59.42;97301.44;30001;982;1881;-62
2022/04/30 00:23:49;;;;;;;;;;;;;;;11.50;59.95;97305.28;30001;983;1880;-61
2022/04/30 00:24:20;;;;;;;;;;;;;;;11.46;60.46;97310.47;30001;983;1858;-63
2022/04/30 00:24:51;;;;;;;;;;;;;;;11.43;60.86;97309.13;30001;983;1876;-61
2022/04/30 00:25:23;;;;;;;;;;;;;;;11.38;60.68;97316.56;30001;983;1880;-63
2022/04/30 00:25:56;;;;;;;;;;;;;;;11.34;60.53;97315.50;30001;983;1880;-61
2022/04/30 00:26:31;;;;;;;;;;;;;;;11.31;60.45;97319.59;30001;983;1880;-62
2022/04/30 00:27:02;;;;;;;;;;;;;;;11.31;60.28;97318.78;30001;983;1880;-62
2022/04/30 00:27:34;;;;;;;;;;;;;;;11.30;59.92;97322.59;30001;983;1881;-63
2022/04/30 00:28:06;;;;;;;;;;;;;;;11.28;59.92;97322.88;30001;982;1881;-61
2022/04/30 00:28:36;;;;;;;;;;;;;;;11.29;60.02;97321.78;30001;982;1859;-62
2022/04/30 00:29:08;;;;;;;;;;;;;;;11.28;59.84;97320.16;30001;982;1854;-62
2022/04/30 00:29:39;;;;;;;;;;;;;;;11.30;60.01;97328.84;30001;982;1881;-64
2022/04/30 00:30:11;;;;;;;;;;;;;;;11.34;60.15;97329.91;30001;982;1881;-63
2022/04/30 00:30:44;;;;;;;;;;;;;;;11.39;59.27;97331.75;30001;982;1881;-63
2022/04/30 00:31:14;;;;;;;;;;;;;;;11.42;59.14;97331.19;30001;982;1881;-62
2022/04/30 00:31:45;;;;;;;;;;;;;;;11.42;59.16;97336.62;30001;983;1880;-64
2022/04/30 00:32:16;;;;;;;;;;;;;;;11.41;59.54;97330.38;30001;983;1880;-63
2022/04/30 00:32:48;;;;;;;;;;;;;;;11.40;59.64;97338.81;30001;983;1859;-63
2022/04/30 00:33:19;;;;;;;;;;;;;;;11.37;59.74;97329.31;30001;983;1876;-63
2022/04/30 00:33:50;;;;;;;;;;;;;;;11.36;60.08;97327.72;30001;983;1880;-65
2022/04/30 00:34:21;;;;;;;;;;;;;;;11.34;60.25;97334.53;30001;983;1880;-62
2022/04/30 00:34:52;;;;;;;;;;;;;;;11.31;60.19;97333.19;30001;983;1881;-61
2022/04/30 00:35:22;;;;;;;;;;;;;;;11.29;60.09;97332.66;30001;983;1881;-64
2022/04/30 00:35:53;;;;;;;;;;;;;;;11.28;60.69;97336.47;30001;982;1881;-61
2022/04/30 00:36:24;;;;;;;;;;;;;;;11.26;60.96;97338.66;30001;982;1881;-63
2022/04/30 00:36:56;;;;;;;;;;;;;;;11.24;60.88;97338.12;30001;982;1859;-62
2022/04/30 00:37:27;;;;;;;;;;;;;;;11.22;62.17;97336.81;30001;982;1876;-63
2022/04/30 00:37:58;;;;;;;;;;;;;;;11.19;61.84;97335.47;30001;982;1881;-61
2022/04/30 00:38:29;;;;;;;;;;;;;;;11.16;62.74;97336.03;30001;982;1881;-61
2022/04/30 00:39:00;;;;;;;;;;;;;;;11.15;64.36;97341.75;30001;983;1880;-61
2022/04/30 00:39:31;;;;;;;;;;;;;;;11.11;64.24;97336.06;30001;983;1880;-62
2022/04/30 00:40:02;;;;;;;;;;;;;;;11.07;63.87;97335.06;30001;983;1880;-62
2022/04/30 00:40:33;;;;;;;;;;;;;;;11.04;65.15;97341.84;30001;983;1880;-62
2022/04/30 00:41:06;;;;;;;;;;;;;;;10.99;64.47;97330.22;30001;983;1880;-61
2022/04/30 00:41:41;;;;;;;;;;;;;;;10.93;64.82;97334.88;30001;983;1880;-65
2022/04/30 00:42:13;;;;;;;;;;;;;;;10.91;64.25;97328.13;30001;983;1859;-61
2022/04/30 00:42:46;;;;;;;;;;;;;;;10.90;65.35;97334.63;30001;983;1876;-65
2022/04/30 00:43:17;;;;;;;;;;;;;;;10.86;64.67;97328.16;30001;982;1859;-62
2022/04/30 00:43:49;;;;;;;;;;;;;;;10.84;64.44;97324.91;30001;982;1876;-62
2022/04/30 00:44:21;;;;;;;;;;;;;;;10.86;64.88;97328.16;30001;982;1881;-62
2022/04/30 00:44:52;;;;;;;;;;;;;;;10.84;64.95;97330.34;30001;982;1881;-62
2022/04/30 00:45:22;;;;;;;;;;;;;;;10.83;64.35;97331.44;30001;982;1881;-64
2022/04/30 00:45:53;;;;;;;;;;;;;;;10.83;64.22;97334.97;30001;983;1880;-62
2022/04/30 00:46:24;;;;;;;;;;;;;;;10.83;64.38;97334.16;30001;983;1858;-61
2022/04/30 00:46:56;;;;;;;;;;;;;;;10.82;64.17;97327.09;30001;983;1876;-63
2022/04/30 00:47:27;;;;;;;;;;;;;;;10.81;64.14;97328.19;30001;983;1858;-62
2022/04/30 00:48:00;;;;;;;;;;;;;;;10.81;64.00;97330.91;30001;983;1876;-62
2022/04/30 00:48:32;;;;;;;;;;;;;;;10.80;64.22;97330.09;30001;983;1880;-63
2022/04/30 00:49:04;;;;;;;;;;;;;;;10.80;64.29;97332.00;30001;983;1880;-62
2022/04/30 00:49:35;;;;;;;;;;;;;;;10.79;64.16;97320.31;30001;983;1880;-62
2022/04/30 00:50:06;;;;;;;;;;;;;;;10.78;65.56;97324.13;30001;983;1881;-61
2022/04/30 00:50:37;;;;;;;;;;;;;;;10.77;66.01;97324.41;30001;982;1881;-64
2022/04/30 00:51:12;;;;;;;;;;;;;;;10.75;65.74;97322.78;30001;982;1881;-62
2022/04/30 00:51:44;;;;;;;;;;;;;;;10.74;65.71;97332.03;30001;982;1881;-61
2022/04/30 00:52:16;;;;;;;;;;;;;;;10.71;66.18;97327.19;30001;982;1859;-62
2022/04/30 00:52:50;;;;;;;;;;;;;;;10.71;65.54;97329.91;30001;982;1876;-63
2022/04/30 00:53:22;;;;;;;;;;;;;;;10.69;65.92;97326.66;30001;983;1858;-63
2022/04/30 00:53:55;;;;;;;;;;;;;;;10.68;65.32;97327.75;30001;983;1876;-63
2022/04/30 00:54:26;;;;;;;;;;;;;;;10.68;64.74;97326.94;30001;983;1880;-61
2022/04/30 00:54:59;;;;;;;;;;;;;;;10.68;66.14;97325.03;30001;983;1880;-62
2022/04/30 00:55:31;;;;;;;;;;;;;;;10.67;65.17;97337.00;30001;983;1880;-62
2022/04/30 00:56:03;;;;;;;;;;;;;;;10.69;65.06;97323.13;30001;983;1880;-61
2022/04/30 00:57:00;;;;;;;;;;;;;;;10.71;65.01;97327.19;30001;983;1880;-66
2022/04/30 00:57:32;;;;;;;;;;;;;;;10.80;63.64;97326.56;30001;983;1876;-62
2022/04/30 00:58:07;;;;;;;;;;;;;;;10.81;63.94;97325.47;30001;983;1881;-63
2022/04/30 00:58:40;;;;;;;;;;;;;;;10.81;63.58;97330.91;30001;982;1859;-65
2022/04/30 00:59:17;;;;;;;;;;;;;;;10.83;63.72;97328.72;30001;982;1876;-67
2022/04/30 00:59:51;;;;;;;;;;;;;;;10.83;64.01;97328.72;30001;982;1859;-62
2022/04/30 01:00:22;;;;;;;;;;;;;;;10.82;63.79;97322.47;30001;982;1876;-65
2022/04/30 01:00:54;;;;;;;;;;;;;;;10.82;63.42;97327.09;30001;983;1880;-65
2022/04/30 01:01:27;;;;;;;;;;;;;;;10.82;63.57;97327.09;30001;983;1880;-62
2022/04/30 01:01:59;;;;;;;;;;;;;;;10.83;63.22;97329.53;30001;983;1880;-62
2022/04/30 01:02:32;;;;;;;;;;;;;;;10.83;63.05;97324.09;30001;983;1880;-66
2022/04/30 01:03:04;;;;;;;;;;;;;;;10.92;62.65;97329.75;30001;983;1880;-66
2022/04/30 01:03:36;;;;;;;;;;;;;;;11.02;62.35;97332.38;30001;983;1880;-64
2022/04/30 01:04:07;;;;;;;;;;;;;;;11.03;62.16;97323.94;30001;983;1859;-65
2022/04/30 01:04:38;;;;;;;;;;;;;;;11.04;62.33;97330.19;30001;983;1874;-61
2022/04/30 01:05:10;;;;;;;;;;;;;;;11.05;62.40;97326.37;30001;983;1859;-62
2022/04/30 01:05:41;;;;;;;;;;;;;;;11.03;62.66;97332.09;30001;982;1876;-61
2022/04/30 01:06:12;;;;;;;;;;;;;;;11.01;63.07;97330.75;30001;982;1881;-62
2022/04/30 01:06:51;;;;;;;;;;;;;;;10.99;62.70;97322.09;30001;982;1881;-63
2022/04/30 01:07:23;;;;;;;;;;;;;;;11.02;62.86;97326.94;30001;982;1881;-63
2022/04/30 01:07:54;;;;;;;;;;;;;;;11.01;63.09;97326.13;30001;982;1881;-62
2022/04/30 01:08:29;;;;;;;;;;;;;;;11.00;63.67;97331.84;30001;983;1880;-61
2022/04/30 01:09:00;;;;;;;;;;;;;;;10.97;63.15;97335.13;30001;983;1858;-64
2022/04/30 01:09:32;;;;;;;;;;;;;;;10.95;63.27;97331.88;30001;983;1876;-61
2022/04/30 01:10:03;;;;;;;;;;;;;;;10.95;63.05;97331.88;30001;983;1880;-64
2022/04/30 01:10:34;;;;;;;;;;;;;;;10.96;63.04;97328.06;30001;983;1880;-62
2022/04/30 01:11:05;;;;;;;;;;;;;;;10.96;63.48;97336.22;30001;983;1880;-62
2022/04/30 01:11:37;;;;;;;;;;;;;;;10.96;63.09;97333.50;30001;983;1859;-62
2022/04/30 01:12:10;;;;;;;;;;;;;;;10.99;63.43;97338.38;30001;983;1876;-64
2022/04/30 01:12:41;;;;;;;;;;;;;;;11.02;63.49;97340.53;30001;983;1747;-64
2022/04/30 01:13:13;;;;;;;;;;;;;;;11.02;63.23;97333.19;30001;983;1876;-63
2022/04/30 01:13:45;;;;;;;;;;;;;;;11.03;63.79;97340.25;30001;982;1881;-61
2022/04/30 01:14:17;;;;;;;;;;;;;;;11.02;64.11;97337.81;30001;982;1859;-62
2022/04/30 01:14:50;;;;;;;;;;;;;;;11.01;63.40;97338.91;30001;982;1876;-63
2022/04/30 01:15:21;;;;;;;;;;;;;;;11.00;63.78;97340.00;30001;982;1859;-65
2022/04/30 01:15:52;;;;;;;;;;;;;;;11.00;63.69;97335.38;30001;983;1876;-61
2022/04/30 01:16:23;;;;;;;;;;;;;;;11.00;64.01;97337.28;30001;983;1880;-63
2022/04/30 01:16:57;;;;;;;;;;;;;;;10.98;63.80;97340.28;30001;983;1858;-62
2022/04/30 01:17:27;;;;;;;;;;;;;;;10.98;63.74;97342.19;30001;983;1876;-64
2022/04/30 01:17:59;;;;;;;;;;;;;;;10.97;63.87;97335.13;30001;983;1880;-63
2022/04/30 01:18:30;;;;;;;;;;;;;;;10.96;63.64;97339.75;30001;983;1880;-64
2022/04/30 01:19:01;;;;;;;;;;;;;;;10.97;64.27;97340.56;30001;983;1880;-61
2022/04/30 01:19:35;;;;;;;;;;;;;;;10.97;64.41;97340.56;30001;983;1880;-64
2022/04/30 01:20:07;;;;;;;;;;;;;;;11.04;64.73;97341.06;30001;982;1881;-62
2022/04/30 01:20:46;;;;;;;;;;;;;;;11.04;64.68;97331.00;30001;982;1881;-70
2022/04/30 01:21:19;;;;;;;;;;;;;;;11.08;64.77;97336.66;30001;982;1881;-65
2022/04/30 01:21:51;;;;;;;;;;;;;;;11.13;64.70;97339.31;30001;982;1859;-63
2022/04/30 01:22:30;;;;;;;;;;;;;;;11.12;65.12;97334.97;30001;982;1876;-62
2022/04/30 01:23:02;;;;;;;;;;;;;;;11.05;65.45;97332.63;30001;982;1881;-62
2022/04/30 01:23:33;;;;;;;;;;;;;;;10.99;66.94;97335.66;30001;983;1880;-63
2022/04/30 01:24:05;;;;;;;;;;;;;;;10.95;65.72;97337.31;30001;986;1880;-65
2022/04/30 01:24:36;;;;;;;;;;;;;;;10.95;65.57;97332.69;30001;983;1880;-61
2022/04/30 01:25:08;;;;;;;;;;;;;;;10.95;65.63;97337.31;30001;983;1880;-64
2022/04/30 01:25:42;;;;;;;;;;;;;;;10.93;65.39;97332.16;30001;983;1858;-62
2022/04/30 01:26:14;;;;;;;;;;;;;;;10.90;65.76;97330.03;30001;983;1876;-63
2022/04/30 01:26:45;;;;;;;;;;;;;;;10.87;67.29;97332.50;30001;983;1880;-63
2022/04/30 01:27:16;;;;;;;;;;;;;;;10.86;66.25;97331.69;30001;983;1880;-66
2022/04/30 01:27:48;;;;;;;;;;;;;;;10.87;66.64;97329.78;30001;982;1881;-65
2022/04/30 01:28:19;;;;;;;;;;;;;;;10.91;66.79;97328.13;30001;982;1881;-62
2022/04/30 01:28:51;;;;;;;;;;;;;;;10.89;67.39;97333.00;30001;982;1881;-62
2022/04/30 01:29:23;;;;;;;;;;;;;;;10.91;67.00;97325.41;30001;982;1881;-63
2022/04/30 01:29:55;;;;;;;;;;;;;;;10.89;66.89;97328.41;30001;982;1881;-64
2022/04/30 01:30:28;;;;;;;;;;;;;;;10.88;66.82;97329.50;30001;982;1881;-66
2022/04/30 01:31:00;;;;;;;;;;;;;;;10.97;67.55;97332.41;30001;983;1858;-64
2022/04/30 01:37:52;;;;;;;;;;;;;;;10.96;69.28;97323.47;30001;982;1877;-65
2022/04/30 01:38:22;;;;;;;;;;;;;;;10.91;69.75;97328.13;30001;982;1881;-61
2022/04/30 01:38:57;;;;;;;;;;;;;;;10.86;68.90;97322.72;30001;983;1880;-64
2022/04/30 01:39:28;;;;;;;;;;;;;;;10.86;70.10;97317.28;30001;983;1880;-62
2022/04/30 01:40:01;;;;;;;;;;;;;;;10.81;70.33;97326.28;30001;983;1880;-63
2022/04/30 01:40:33;;;;;;;;;;;;;;;10.76;69.78;97323.59;30001;983;1880;-63
2022/04/30 01:41:04;;;;;;;;;;;;;;;10.77;69.94;97319.00;30001;983;1880;-58
2022/04/30 01:41:35;;;;;;;;;;;;;;;10.82;70.07;97321.66;30001;983;1880;-66
2022/04/30 01:42:11;;;;;;;;;;;;;;;10.80;70.41;97316.53;30001;983;1859;-64
2022/04/30 01:42:46;;;;;;;;;;;;;;;10.78;69.70;97312.47;30001;982;1876;-64
2022/04/30 01:43:20;;;;;;;;;;;;;;;10.77;70.22;97324.41;30001;982;1881;-64
2022/04/30 01:43:51;;;;;;;;;;;;;;;10.80;70.43;97319.22;30001;982;1881;-66
2022/04/30 01:44:23;;;;;;;;;;;;;;;10.78;70.62;97317.91;30001;982;1881;-62
2022/04/30 01:44:54;;;;;;;;;;;;;;;10.79;70.47;97319.50;30001;982;1881;-64
2022/04/30 01:45:26;;;;;;;;;;;;;;;10.79;70.63;97311.37;30001;982;1881;-63
2022/04/30 01:46:00;;;;;;;;;;;;;;;10.76;71.00;97312.75;30001;983;1858;-64
2022/04/30 01:46:31;;;;;;;;;;;;;;;10.72;70.56;97311.72;30001;983;1876;-69
2022/04/30 01:47:06;;;;;;;;;;;;;;;10.74;70.77;97315.75;30001;983;1880;-67
2022/04/30 01:47:39;;;;;;;;;;;;;;;10.77;70.83;97317.09;30001;983;1880;-63
2022/04/30 01:48:14;;;;;;;;;;;;;;;10.75;70.82;97317.37;30001;983;1880;-67
2022/04/30 01:48:45;;;;;;;;;;;;;;;10.75;70.93;97311.94;30001;983;1880;-64
2022/04/30 01:49:16;;;;;;;;;;;;;;;10.77;71.05;97319.78;30001;983;1880;-63
2022/04/30 01:49:47;;;;;;;;;;;;;;;10.77;71.34;97308.94;30001;983;1881;-63
2022/04/30 01:50:18;;;;;;;;;;;;;;;10.75;71.10;97314.66;30001;982;1859;-63
2022/04/30 01:50:48;;;;;;;;;;;;;;;10.73;71.10;97307.91;30001;982;1876;-61
2022/04/30 01:51:22;;;;;;;;;;;;;;;10.78;71.40;97309.75;30001;982;1881;-60
2022/04/30 01:51:53;;;;;;;;;;;;;;;10.78;70.92;97304.31;30001;982;1881;-63
2022/04/30 01:52:24;;;;;;;;;;;;;;;10.75;71.33;97306.50;30001;982;1881;-64
2022/04/30 01:52:56;;;;;;;;;;;;;;;10.71;71.60;97310.91;30001;983;1784;-64
2022/04/30 01:53:28;;;;;;;;;;;;;;;10.66;71.72;97308.22;30001;983;1880;-64
2022/04/30 01:53:59;;;;;;;;;;;;;;;10.60;73.29;97308.53;30001;983;1880;-64
2022/04/30 01:54:34;;;;;;;;;;;;;;;10.54;73.01;97302.34;30001;983;1880;-65
2022/04/30 01:55:05;;;;;;;;;;;;;;;10.50;72.07;97314.84;30001;983;1858;-62
2022/04/30 01:55:37;;;;;;;;;;;;;;;10.50;72.98;97308.59;30001;983;1876;-61
2022/04/30 01:56:07;;;;;;;;;;;;;;;10.57;72.73;97304.50;30001;983;1880;-60
2022/04/30 01:56:38;;;;;;;;;;;;;;;10.67;72.33;97304.44;30001;983;1880;-67
2022/04/30 01:57:10;;;;;;;;;;;;;;;10.71;71.82;97300.06;30001;983;1881;-60
2022/04/30 01:57:44;;;;;;;;;;;;;;;10.75;71.79;97303.78;30001;983;1881;-63
2022/04/30 01:58:15;;;;;;;;;;;;;;;10.72;71.97;97304.38;30001;982;1881;-65
2022/04/30 01:58:46;;;;;;;;;;;;;;;10.67;71.67;97299.00;30001;982;1881;-63
2022/04/30 01:59:17;;;;;;;;;;;;;;;10.63;72.34;97303.37;30001;982;1859;-63
2022/04/30 01:59:49;;;;;;;;;;;;;;;10.59;72.36;97302.31;30001;982;1876;-62
2022/04/30 02:00:20;;;;;;;;;;;;;;;10.55;72.56;97295.81;30001;983;1880;-62
2022/04/30 02:00:52;;;;;;;;;;;;;;;10.51;71.99;97297.47;30001;983;1858;-61
2022/04/30 02:01:24;;;;;;;;;;;;;;;10.54;72.44;97296.09;30001;983;1876;-61
2022/04/30 02:01:55;;;;;;;;;;;;;;;10.54;72.39;97294.19;30001;983;1880;-66
2022/04/30 02:02:36;;;;;;;;;;;;;;;10.53;72.71;97302.63;30001;983;1880;-63
2022/04/30 02:03:09;;;;;;;;;;;;;;;10.51;72.20;97294.75;30001;983;1880;-69
2022/04/30 02:03:40;;;;;;;;;;;;;;;10.51;72.59;97297.47;30001;983;1880;-63
2022/04/30 02:04:14;;;;;;;;;;;;;;;10.51;72.44;97294.75;30001;983;1880;-63
2022/04/30 02:04:45;;;;;;;;;;;;;;;10.49;72.38;97296.13;30001;983;1881;-61
2022/04/30 02:05:18;;;;;;;;;;;;;;;10.56;72.84;97297.44;30001;982;1881;-58
2022/04/30 02:05:50;;;;;;;;;;;;;;;10.59;72.89;97296.88;30001;982;1881;-63
2022/04/30 02:06:21;;;;;;;;;;;;;;;10.56;73.01;97296.63;30001;982;1859;-64
2022/04/30 02:06:53;;;;;;;;;;;;;;;10.53;72.25;97298.00;30001;982;1876;-64
2022/04/30 02:07:24;;;;;;;;;;;;;;;10.51;72.26;97294.75;30001;982;1881;-59
2022/04/30 02:07:58;;;;;;;;;;;;;;;10.57;72.97;97293.63;30001;983;1880;-64
2022/04/30 02:08:31;;;;;;;;;;;;;;;10.57;73.12;97290.94;30001;983;1880;-63
2022/04/30 02:09:02;;;;;;;;;;;;;;;10.53;72.91;97292.56;30001;983;1858;-63
2022/04/30 02:09:33;;;;;;;;;;;;;;;10.52;73.00;97295.56;30001;983;1876;-62
2022/04/30 02:10:05;;;;;;;;;;;;;;;10.50;73.33;97293.13;30001;983;1880;-61
2022/04/30 02:10:38;;;;;;;;;;;;;;;10.48;72.67;97294.50;30001;983;1880;-63
2022/04/30 02:11:11;;;;;;;;;;;;;;;10.47;72.85;97288.28;30001;983;1880;-61
2022/04/30 02:11:43;;;;;;;;;;;;;;;10.47;72.85;97292.88;30001;983;1880;-64
2022/04/30 02:12:15;;;;;;;;;;;;;;;10.49;73.39;97288.81;30001;983;1881;-65
2022/04/30 02:12:50;;;;;;;;;;;;;;;10.51;73.50;97289.34;30001;983;1881;-64
2022/04/30 02:13:24;;;;;;;;;;;;;;;10.49;73.70;97286.09;30001;982;1881;-63
2022/04/30 02:13:56;;;;;;;;;;;;;;;10.46;73.30;97292.09;30001;982;1859;-60
2022/04/30 02:14:29;;;;;;;;;;;;;;;10.48;73.52;97286.38;30001;982;1876;-63
2022/04/30 02:15:00;;;;;;;;;;;;;;;10.45;73.27;97285.03;30001;982;1881;-63
2022/04/30 02:15:32;;;;;;;;;;;;;;;10.44;72.85;97288.84;30001;983;1880;-66
2022/04/30 02:16:03;;;;;;;;;;;;;;;10.44;73.32;97286.13;30001;983;1880;-59
2022/04/30 02:16:35;;;;;;;;;;;;;;;10.48;73.60;97289.91;30001;983;1880;-64
2022/04/30 02:17:08;;;;;;;;;;;;;;;10.51;73.55;97283.91;30001;983;1880;-60
2022/04/30 02:17:40;;;;;;;;;;;;;;;10.57;73.35;97287.41;30001;983;1880;-64
2022/04/30 02:18:14;;;;;;;;;;;;;;;10.63;73.12;97289.81;30001;983;1880;-64
2022/04/30 02:18:45;;;;;;;;;;;;;;;10.62;72.96;97290.09;30001;983;1859;-60
2022/04/30 02:19:16;;;;;;;;;;;;;;;10.61;72.80;97283.84;30001;983;1876;-63
2022/04/30 02:20:42;;;;;;;;;;;;;;;10.50;74.50;97282.28;30001;982;1859;-64
2022/04/30 02:21:13;;;;;;;;;;;;;;;10.43;74.64;97287.22;30001;982;1876;-63
2022/04/30 02:21:45;;;;;;;;;;;;;;;10.39;73.81;97286.19;30001;982;1881;-62
2022/04/30 02:22:17;;;;;;;;;;;;;;;10.39;74.02;97291.62;30001;982;1881;-62
2022/04/30 02:22:49;;;;;;;;;;;;;;;10.46;73.98;97283.12;30001;982;1881;-63
2022/04/30 02:23:22;;;;;;;;;;;;;;;10.44;74.21;97283.41;30001;983;1880;-65
2022/04/30 02:23:57;;;;;;;;;;;;;;;10.45;73.86;97295.87;30001;983;1880;-63
2022/04/30 02:24:28;;;;;;;;;;;;;;;10.53;73.56;97287.16;30001;983;1880;-63
2022/04/30 02:24:59;;;;;;;;;;;;;;;10.59;73.36;97288.75;30001;983;1880;-67
2022/04/30 02:25:30;;;;;;;;;;;;;;;10.58;73.27;97283.59;30001;983;1880;-64
2022/04/30 02:26:04;;;;;;;;;;;;;;;10.55;73.15;97287.69;30001;983;1858;-64
2022/04/30 02:26:35;;;;;;;;;;;;;;;10.51;73.42;97289.34;30001;983;1876;-64
2022/04/30 02:27:06;;;;;;;;;;;;;;;10.58;73.32;97295.25;30001;982;1881;-61
2022/04/30 02:27:38;;;;;;;;;;;;;;;10.62;73.17;97288.19;30001;982;1881;-62
2022/04/30 02:28:09;;;;;;;;;;;;;;;10.62;73.06;97285.47;30001;982;1881;-68
2022/04/30 02:28:42;;;;;;;;;;;;;;;10.59;72.92;97277.06;30001;982;1859;-64
2022/04/30 02:29:12;;;;;;;;;;;;;;;10.54;72.90;97294.19;30001;982;1876;-58
2022/04/30 02:29:44;;;;;;;;;;;;;;;10.55;73.54;97290.41;30001;982;1881;-63
2022/04/30 02:30:17;;;;;;;;;;;;;;;10.60;73.56;97292.25;30001;982;1881;-62
2022/04/30 02:30:48;;;;;;;;;;;;;;;10.55;73.50;97284.97;30001;983;1880;-63
2022/04/30 02:31:23;;;;;;;;;;;;;;;10.49;74.56;97288.81;30001;986;1876;-62
2022/04/30 02:31:54;;;;;;;;;;;;;;;10.41;74.69;97283.97;30001;983;1880;-63
2022/04/30 02:32:25;;;;;;;;;;;;;;;10.36;74.16;97292.97;30001;983;1858;-66
2022/04/30 02:33:03;;;;;;;;;;;;;;;10.39;74.02;97288.91;30001;983;1876;-64
2022/04/30 02:33:33;;;;;;;;;;;;;;;10.37;73.77;97291.09;30001;983;1797;-63
2022/04/30 02:34:06;;;;;;;;;;;;;;;10.35;73.68;97295.97;30001;987;1859;-63
2022/04/30 02:34:36;;;;;;;;;;;;;;;10.35;73.74;97294.06;30001;982;1876;-64
2022/04/30 02:35:10;;;;;;;;;;;;;;;10.35;74.46;97302.22;30001;982;1881;-62
2022/04/30 02:35:45;;;;;;;;;;;;;;;10.34;74.22;97294.34;30001;982;1881;-54
2022/04/30 02:36:16;;;;;;;;;;;;;;;10.41;73.95;97294.81;30001;986;1881;-61
2022/04/30 02:36:47;;;;;;;;;;;;;;;10.38;73.88;97288.09;30001;982;1881;-62
2022/04/30 02:37:18;;;;;;;;;;;;;;;10.36;74.63;97295.69;30001;982;1881;-63
2022/04/30 02:37:52;;;;;;;;;;;;;;;10.32;74.04;97296.53;30001;982;1859;-63
2022/04/30 02:38:26;;;;;;;;;;;;;;;10.28;74.12;97290.84;30001;983;1876;-62
2022/04/30 02:38:57;;;;;;;;;;;;;;;10.27;73.92;97296.56;30001;983;1880;-63
2022/04/30 02:39:28;;;;;;;;;;;;;;;10.30;74.40;97298.72;30001;983;1858;-64
2022/04/30 02:39:59;;;;;;;;;;;;;;;10.30;74.20;97301.44;30001;983;1876;-63
2022/04/30 02:40:30;;;;;;;;;;;;;;;10.28;74.83;97296.28;30001;983;1880;-62
2022/04/30 02:41:01;;;;;;;;;;;;;;;10.23;75.70;97293.59;30001;983;1880;-63
2022/04/30 02:41:32;;;;;;;;;;;;;;;10.21;75.37;97295.78;30001;958;1906;-63
2022/04/30 02:42:05;;;;;;;;;;;;;;;10.20;75.64;97298.78;30001;983;1881;-62
2022/04/30 02:42:35;;;;;;;;;;;;;;;10.16;74.96;97289.53;30001;982;1881;-63
2022/04/30 02:43:08;;;;;;;;;;;;;;;10.22;75.11;97296.59;30001;982;1859;-62
2022/04/30 02:43:39;;;;;;;;;;;;;;;10.22;75.44;97285.75;30001;982;1876;-63
2022/04/30 02:44:10;;;;;;;;;;;;;;;10.19;75.83;97289.81;30001;982;1881;-62
2022/04/30 02:44:41;;;;;;;;;;;;;;;10.15;75.84;97287.91;30001;982;1881;-63
2022/04/30 02:45:13;;;;;;;;;;;;;;;10.17;75.20;97288.44;30001;982;1881;-61
2022/04/30 02:45:44;;;;;;;;;;;;;;;10.20;75.16;97290.63;30001;983;1880;-62
2022/04/30 02:46:15;;;;;;;;;;;;;;;10.20;75.31;97287.91;30001;983;1858;-62
2022/04/30 02:46:46;;;;;;;;;;;;;;;10.17;75.10;97289.25;30001;983;1876;-61
2022/04/30 02:47:18;;;;;;;;;;;;;;;10.16;75.09;97286.81;30001;983;1858;-63
2022/04/30 02:47:55;;;;;;;;;;;;;;;10.15;75.16;97286.00;30001;983;1876;-61
2022/04/30 02:48:26;;;;;;;;;;;;;;;10.17;74.96;97288.44;30001;983;1859;-66
2022/04/30 02:48:57;;;;;;;;;;;;;;;10.17;75.25;97283.84;30001;983;1876;-64
2022/04/30 02:49:28;;;;;;;;;;;;;;;10.17;74.68;97280.31;30001;983;1881;-68
2022/04/30 02:49:58;;;;;;;;;;;;;;;10.21;74.81;97290.34;30001;982;1881;-63
2022/04/30 02:50:30;;;;;;;;;;;;;;;10.23;74.43;97277.31;30001;982;1881;-60
2022/04/30 02:51:00;;;;;;;;;;;;;;;10.23;75.17;97287.37;30001;982;1879;-63
2022/04/30 02:51:31;;;;;;;;;;;;;;;10.21;74.73;97292.25;30001;982;1859;-64
2022/04/30 02:52:03;;;;;;;;;;;;;;;10.18;75.30;97280.03;30001;982;1876;-61
2022/04/30 02:52:33;;;;;;;;;;;;;;;10.16;75.20;97282.22;30001;983;1880;-61
2022/04/30 02:53:05;;;;;;;;;;;;;;;10.14;75.45;97278.97;30001;983;1858;-60
2022/04/30 02:53:38;;;;;;;;;;;;;;;10.15;75.47;97286.00;30001;985;1854;-62
2022/04/30 02:54:10;;;;;;;;;;;;;;;10.25;74.86;97279.75;30001;983;1880;-71
2022/04/30 02:54:42;;;;;;;;;;;;;;;10.29;74.47;97286.25;30001;983;1880;-68
2022/04/30 02:55:13;;;;;;;;;;;;;;;10.38;74.16;97276.44;30001;983;1880;-65
2022/04/30 02:55:45;;;;;;;;;;;;;;;10.38;73.84;97279.13;30001;983;1880;-64
2022/04/30 02:56:15;;;;;;;;;;;;;;;10.38;74.01;97284.56;30001;983;1880;-61
2022/04/30 02:56:46;;;;;;;;;;;;;;;10.37;73.81;97278.31;30001;983;1881;-63
2022/04/30 02:57:17;;;;;;;;;;;;;;;10.35;73.94;97285.13;30001;982;1881;-59
2022/04/30 03:00:17;;;;;;;;;;;;;;;10.32;74.21;97277.56;30001;983;1880;-61
2022/04/30 03:00:51;;;;;;;;;;;;;;;10.30;74.52;97282.44;30001;983;1858;-62